sensor_id;sensor_type;location;lat;lon;timestamp;P1;durP1;ratioP1;P2;durP2;ratioP2
75073;SDS011;63652;51.526;5.080;2022-11-20T00:01:33;15.40;;;7.20;;
75073;SDS011;63652;51.526;5.080;2022-11-20T00:03:58;15.05;;;6.38;;
75073;SDS011;63652;51.526;5.080;2022-11-20T00:06:24;13.02;;;7.03;;
75073;SDS011;63652;51.526;5.080;2022-11-20T00:08:51;15.32;;;8.00;;
75073;SDS011;63652;51.526;5.080;2022-11-20T00:11:20;13.38;;;7.15;;
75073;SDS011;63652;51.526;5.080;2022-11-20T00:13:47;16.13;;;6.70;;
75073;SDS011;63652;51.526;5.080;2022-11-20T00:16:15;13.55;;;6.93;;
75073;SDS011;63652;51.526;5.080;2022-11-20T00:18:42;17.15;;;7.78;;
75073;SDS011;63652;51.526;5.080;2022-11-20T00:21:27;15.30;;;6.75;;
75073;SDS011;63652;51.526;5.080;2022-11-20T00:23:53;13.40;;;6.50;;
75073;SDS011;63652;51.526;5.080;2022-11-20T00:26:20;18.30;;;6.55;;
75073;SDS011;63652;51.526;5.080;2022-11-20T00:28:50;12.07;;;6.95;;
75073;SDS011;63652;51.526;5.080;2022-11-20T00:31:17;17.33;;;7.97;;
75073;SDS011;63652;51.526;5.080;2022-11-20T00:33:43;13.35;;;6.35;;
75073;SDS011;63652;51.526;5.080;2022-11-20T00:36:10;13.73;;;6.78;;
75073;SDS011;63652;51.526;5.080;2022-11-20T00:38:45;14.80;;;6.90;;
75073;SDS011;63652;51.526;5.080;2022-11-20T00:41:12;16.55;;;7.18;;
75073;SDS011;63652;51.526;5.080;2022-11-20T00:43:39;15.55;;;7.20;;
75073;SDS011;63652;51.526;5.080;2022-11-20T00:46:09;15.98;;;8.13;;
75073;SDS011;63652;51.526;5.080;2022-11-20T00:48:35;14.82;;;6.85;;
75073;SDS011;63652;51.526;5.080;2022-11-20T00:51:01;15.90;;;6.45;;
75073;SDS011;63652;51.526;5.080;2022-11-20T00:53:27;14.98;;;7.15;;
75073;SDS011;63652;51.526;5.080;2022-11-20T00:55:56;16.23;;;8.38;;
75073;SDS011;63652;51.526;5.080;2022-11-20T00:58:28;14.75;;;7.47;;
75073;SDS011;63652;51.526;5.080;2022-11-20T01:00:59;16.17;;;6.82;;
75073;SDS011;63652;51.526;5.080;2022-11-20T01:03:46;17.83;;;7.70;;
75073;SDS011;63652;51.526;5.080;2022-11-20T01:06:25;16.65;;;7.57;;
75073;SDS011;63652;51.526;5.080;2022-11-20T01:08:53;13.05;;;6.47;;
75073;SDS011;63652;51.526;5.080;2022-11-20T01:11:22;16.90;;;7.85;;
75073;SDS011;63652;51.526;5.080;2022-11-20T01:13:59;15.05;;;6.75;;
75073;SDS011;63652;51.526;5.080;2022-11-20T01:18:56;14.48;;;6.40;;
75073;SDS011;63652;51.526;5.080;2022-11-20T01:21:31;13.73;;;7.20;;
75073;SDS011;63652;51.526;5.080;2022-11-20T01:23:58;15.40;;;7.47;;
75073;SDS011;63652;51.526;5.080;2022-11-20T01:26:25;16.95;;;7.47;;
75073;SDS011;63652;51.526;5.080;2022-11-20T01:28:53;16.13;;;7.40;;
75073;SDS011;63652;51.526;5.080;2022-11-20T01:33:46;14.85;;;7.60;;
75073;SDS011;63652;51.526;5.080;2022-11-20T01:36:13;17.85;;;7.15;;
75073;SDS011;63652;51.526;5.080;2022-11-20T01:38:39;17.27;;;7.20;;
75073;SDS011;63652;51.526;5.080;2022-11-20T01:41:05;13.82;;;7.22;;
75073;SDS011;63652;51.526;5.080;2022-11-20T01:43:30;16.83;;;7.57;;
75073;SDS011;63652;51.526;5.080;2022-11-20T01:51:32;18.27;;;7.85;;
75073;SDS011;63652;51.526;5.080;2022-11-20T01:54:01;17.73;;;8.23;;
75073;SDS011;63652;51.526;5.080;2022-11-20T01:56:29;14.52;;;7.32;;
75073;SDS011;63652;51.526;5.080;2022-11-20T01:58:56;15.43;;;7.07;;
75073;SDS011;63652;51.526;5.080;2022-11-20T02:01:23;15.95;;;7.18;;
75073;SDS011;63652;51.526;5.080;2022-11-20T02:03:49;16.92;;;7.38;;
75073;SDS011;63652;51.526;5.080;2022-11-20T02:08:43;15.13;;;7.05;;
75073;SDS011;63652;51.526;5.080;2022-11-20T02:11:09;15.82;;;7.75;;
75073;SDS011;63652;51.526;5.080;2022-11-20T02:13:34;16.45;;;7.78;;
75073;SDS011;63652;51.526;5.080;2022-11-20T02:16:16;16.23;;;7.45;;
75073;SDS011;63652;51.526;5.080;2022-11-20T02:21:24;15.85;;;7.13;;
75073;SDS011;63652;51.526;5.080;2022-11-20T02:26:53;16.17;;;7.43;;
75073;SDS011;63652;51.526;5.080;2022-11-20T02:30:05;13.25;;;5.88;;
75073;SDS011;63652;51.526;5.080;2022-11-20T02:32:20;14.52;;;7.30;;
75073;SDS011;63652;51.526;5.080;2022-11-20T02:34:47;16.05;;;7.88;;
75073;SDS011;63652;51.526;5.080;2022-11-20T02:37:12;15.05;;;7.85;;
75073;SDS011;63652;51.526;5.080;2022-11-20T02:39:37;15.75;;;7.45;;
75073;SDS011;63652;51.526;5.080;2022-11-20T02:42:03;16.67;;;7.75;;
75073;SDS011;63652;51.526;5.080;2022-11-20T02:44:28;18.75;;;8.48;;
75073;SDS011;63652;51.526;5.080;2022-11-20T02:46:56;15.98;;;8.70;;
75073;SDS011;63652;51.526;5.080;2022-11-20T02:49:22;19.08;;;8.63;;
75073;SDS011;63652;51.526;5.080;2022-11-20T02:51:47;20.77;;;8.52;;
75073;SDS011;63652;51.526;5.080;2022-11-20T02:54:13;17.00;;;8.23;;
75073;SDS011;63652;51.526;5.080;2022-11-20T02:56:38;17.55;;;8.05;;
75073;SDS011;63652;51.526;5.080;2022-11-20T02:59:04;14.15;;;7.70;;
75073;SDS011;63652;51.526;5.080;2022-11-20T03:01:29;16.17;;;7.15;;
75073;SDS011;63652;51.526;5.080;2022-11-20T03:03:55;16.50;;;8.10;;
75073;SDS011;63652;51.526;5.080;2022-11-20T03:06:21;16.85;;;8.00;;
75073;SDS011;63652;51.526;5.080;2022-11-20T03:08:46;14.55;;;7.53;;
75073;SDS011;63652;51.526;5.080;2022-11-20T03:11:12;17.75;;;8.45;;
75073;SDS011;63652;51.526;5.080;2022-11-20T03:13:37;19.00;;;8.80;;
75073;SDS011;63652;51.526;5.080;2022-11-20T03:16:13;14.40;;;7.82;;
75073;SDS011;63652;51.526;5.080;2022-11-20T03:18:40;18.55;;;8.57;;
75073;SDS011;63652;51.526;5.080;2022-11-20T03:21:06;16.25;;;7.45;;
75073;SDS011;63652;51.526;5.080;2022-11-20T03:23:33;19.50;;;9.10;;
75073;SDS011;63652;51.526;5.080;2022-11-20T03:26:14;19.88;;;9.15;;
75073;SDS011;63652;51.526;5.080;2022-11-20T03:28:42;14.80;;;7.30;;
75073;SDS011;63652;51.526;5.080;2022-11-20T03:31:12;16.52;;;8.32;;
75073;SDS011;63652;51.526;5.080;2022-11-20T03:33:39;19.70;;;8.82;;
75073;SDS011;63652;51.526;5.080;2022-11-20T03:36:06;17.23;;;7.45;;
75073;SDS011;63652;51.526;5.080;2022-11-20T03:38:33;15.43;;;7.68;;
75073;SDS011;63652;51.526;5.080;2022-11-20T03:41:03;16.02;;;7.80;;
75073;SDS011;63652;51.526;5.080;2022-11-20T03:43:38;18.73;;;8.30;;
75073;SDS011;63652;51.526;5.080;2022-11-20T03:46:04;18.40;;;9.02;;
75073;SDS011;63652;51.526;5.080;2022-11-20T03:48:30;17.50;;;7.43;;
75073;SDS011;63652;51.526;5.080;2022-11-20T03:53:37;18.42;;;8.10;;
75073;SDS011;63652;51.526;5.080;2022-11-20T03:56:03;17.20;;;8.23;;
75073;SDS011;63652;51.526;5.080;2022-11-20T03:58:29;17.05;;;7.95;;
75073;SDS011;63652;51.526;5.080;2022-11-20T04:00:55;18.55;;;8.25;;
75073;SDS011;63652;51.526;5.080;2022-11-20T04:03:20;18.40;;;9.15;;
75073;SDS011;63652;51.526;5.080;2022-11-20T04:05:45;18.45;;;8.80;;
75073;SDS011;63652;51.526;5.080;2022-11-20T04:08:11;17.42;;;8.63;;
75073;SDS011;63652;51.526;5.080;2022-11-20T04:10:36;16.80;;;8.77;;
75073;SDS011;63652;51.526;5.080;2022-11-20T04:13:31;16.70;;;7.65;;
75073;SDS011;63652;51.526;5.080;2022-11-20T04:15:57;19.25;;;9.82;;
75073;SDS011;63652;51.526;5.080;2022-11-20T04:18:22;17.77;;;7.95;;
75073;SDS011;63652;51.526;5.080;2022-11-20T04:20:48;17.30;;;8.40;;
75073;SDS011;63652;51.526;5.080;2022-11-20T04:23:13;14.90;;;7.53;;
75073;SDS011;63652;51.526;5.080;2022-11-20T04:25:41;16.30;;;7.97;;
75073;SDS011;63652;51.526;5.080;2022-11-20T04:28:06;17.38;;;8.18;;
75073;SDS011;63652;51.526;5.080;2022-11-20T04:30:32;18.02;;;7.95;;
75073;SDS011;63652;51.526;5.080;2022-11-20T04:32:57;19.40;;;8.70;;
75073;SDS011;63652;51.526;5.080;2022-11-20T04:35:22;18.55;;;8.15;;
75073;SDS011;63652;51.526;5.080;2022-11-20T04:37:50;19.33;;;9.18;;
75073;SDS011;63652;51.526;5.080;2022-11-20T04:40:16;21.52;;;8.88;;
75073;SDS011;63652;51.526;5.080;2022-11-20T04:42:41;17.95;;;8.65;;
75073;SDS011;63652;51.526;5.080;2022-11-20T04:45:07;14.93;;;7.47;;
75073;SDS011;63652;51.526;5.080;2022-11-20T04:47:32;17.45;;;7.95;;
75073;SDS011;63652;51.526;5.080;2022-11-20T04:49:58;18.58;;;7.57;;
75073;SDS011;63652;51.526;5.080;2022-11-20T04:52:23;15.68;;;7.90;;
75073;SDS011;63652;51.526;5.080;2022-11-20T04:54:54;16.02;;;8.50;;
75073;SDS011;63652;51.526;5.080;2022-11-20T04:57:23;17.73;;;7.57;;
75073;SDS011;63652;51.526;5.080;2022-11-20T04:59:48;18.75;;;7.43;;
75073;SDS011;63652;51.526;5.080;2022-11-20T05:02:13;17.52;;;8.40;;
75073;SDS011;63652;51.526;5.080;2022-11-20T05:04:42;17.08;;;7.82;;
75073;SDS011;63652;51.526;5.080;2022-11-20T05:07:13;16.58;;;8.68;;
75073;SDS011;63652;51.526;5.080;2022-11-20T05:09:38;17.27;;;8.82;;
75073;SDS011;63652;51.526;5.080;2022-11-20T05:12:04;18.42;;;8.23;;
75073;SDS011;63652;51.526;5.080;2022-11-20T05:14:29;18.33;;;8.02;;
75073;SDS011;63652;51.526;5.080;2022-11-20T05:16:54;18.88;;;8.93;;
75073;SDS011;63652;51.526;5.080;2022-11-20T05:19:20;19.67;;;9.43;;
75073;SDS011;63652;51.526;5.080;2022-11-20T05:21:45;17.85;;;8.75;;
75073;SDS011;63652;51.526;5.080;2022-11-20T05:24:11;20.65;;;9.68;;
75073;SDS011;63652;51.526;5.080;2022-11-20T05:26:36;16.52;;;7.80;;
75073;SDS011;63652;51.526;5.080;2022-11-20T05:29:01;18.33;;;8.02;;
75073;SDS011;63652;51.526;5.080;2022-11-20T05:31:27;15.82;;;8.32;;
75073;SDS011;63652;51.526;5.080;2022-11-20T05:33:52;18.63;;;8.60;;
75073;SDS011;63652;51.526;5.080;2022-11-20T05:36:18;17.65;;;8.25;;
75073;SDS011;63652;51.526;5.080;2022-11-20T05:38:44;18.80;;;8.43;;
75073;SDS011;63652;51.526;5.080;2022-11-20T05:41:10;18.10;;;8.68;;
75073;SDS011;63652;51.526;5.080;2022-11-20T05:43:41;20.05;;;9.95;;
75073;SDS011;63652;51.526;5.080;2022-11-20T05:46:09;15.05;;;8.20;;
75073;SDS011;63652;51.526;5.080;2022-11-20T05:48:36;20.90;;;9.07;;
75073;SDS011;63652;51.526;5.080;2022-11-20T05:51:04;15.93;;;8.05;;
75073;SDS011;63652;51.526;5.080;2022-11-20T05:53:31;17.35;;;9.90;;
75073;SDS011;63652;51.526;5.080;2022-11-20T05:56:01;16.33;;;8.25;;
75073;SDS011;63652;51.526;5.080;2022-11-20T06:00:53;20.33;;;9.23;;
75073;SDS011;63652;51.526;5.080;2022-11-20T06:03:19;15.10;;;7.78;;
75073;SDS011;63652;51.526;5.080;2022-11-20T06:05:44;15.57;;;8.57;;
75073;SDS011;63652;51.526;5.080;2022-11-20T06:08:10;17.65;;;8.70;;
75073;SDS011;63652;51.526;5.080;2022-11-20T06:10:35;18.90;;;9.18;;
75073;SDS011;63652;51.526;5.080;2022-11-20T06:13:00;20.95;;;9.10;;
75073;SDS011;63652;51.526;5.080;2022-11-20T06:15:26;18.00;;;10.05;;
75073;SDS011;63652;51.526;5.080;2022-11-20T06:17:52;17.75;;;8.38;;
75073;SDS011;63652;51.526;5.080;2022-11-20T06:20:18;19.20;;;8.13;;
75073;SDS011;63652;51.526;5.080;2022-11-20T06:22:43;20.05;;;9.07;;
75073;SDS011;63652;51.526;5.080;2022-11-20T06:25:09;18.02;;;8.80;;
75073;SDS011;63652;51.526;5.080;2022-11-20T06:27:34;18.10;;;8.88;;
75073;SDS011;63652;51.526;5.080;2022-11-20T06:29:59;17.80;;;8.10;;
75073;SDS011;63652;51.526;5.080;2022-11-20T06:32:25;20.90;;;8.30;;
75073;SDS011;63652;51.526;5.080;2022-11-20T06:34:50;20.48;;;9.18;;
75073;SDS011;63652;51.526;5.080;2022-11-20T06:37:15;18.30;;;8.48;;
75073;SDS011;63652;51.526;5.080;2022-11-20T06:39:41;19.95;;;8.70;;
75073;SDS011;63652;51.526;5.080;2022-11-20T06:42:06;16.73;;;8.43;;
75073;SDS011;63652;51.526;5.080;2022-11-20T06:44:31;15.18;;;7.28;;
75073;SDS011;63652;51.526;5.080;2022-11-20T06:46:57;18.20;;;8.18;;
75073;SDS011;63652;51.526;5.080;2022-11-20T06:49:23;17.13;;;8.70;;
75073;SDS011;63652;51.526;5.080;2022-11-20T06:51:48;18.48;;;8.75;;
75073;SDS011;63652;51.526;5.080;2022-11-20T06:54:13;17.83;;;8.77;;
75073;SDS011;63652;51.526;5.080;2022-11-20T06:56:39;20.80;;;9.00;;
75073;SDS011;63652;51.526;5.080;2022-11-20T06:59:05;20.73;;;9.95;;
75073;SDS011;63652;51.526;5.080;2022-11-20T07:01:31;21.40;;;9.45;;
75073;SDS011;63652;51.526;5.080;2022-11-20T07:03:56;19.52;;;8.60;;
75073;SDS011;63652;51.526;5.080;2022-11-20T07:06:22;19.95;;;9.02;;
75073;SDS011;63652;51.526;5.080;2022-11-20T07:08:47;20.48;;;9.10;;
75073;SDS011;63652;51.526;5.080;2022-11-20T07:11:15;17.80;;;9.20;;
75073;SDS011;63652;51.526;5.080;2022-11-20T07:13:40;17.77;;;8.25;;
75073;SDS011;63652;51.526;5.080;2022-11-20T07:16:07;18.33;;;8.70;;
75073;SDS011;63652;51.526;5.080;2022-11-20T07:18:33;17.08;;;8.35;;
75073;SDS011;63652;51.526;5.080;2022-11-20T07:21:02;16.52;;;8.10;;
75073;SDS011;63652;51.526;5.080;2022-11-20T07:23:30;18.20;;;8.05;;
75073;SDS011;63652;51.526;5.080;2022-11-20T07:25:55;16.80;;;8.70;;
75073;SDS011;63652;51.526;5.080;2022-11-20T07:28:20;17.65;;;9.10;;
75073;SDS011;63652;51.526;5.080;2022-11-20T07:30:52;16.75;;;8.63;;
75073;SDS011;63652;51.526;5.080;2022-11-20T07:33:18;18.17;;;9.15;;
75073;SDS011;63652;51.526;5.080;2022-11-20T07:35:44;19.90;;;10.10;;
75073;SDS011;63652;51.526;5.080;2022-11-20T07:38:10;19.05;;;8.65;;
75073;SDS011;63652;51.526;5.080;2022-11-20T07:40:35;19.63;;;8.88;;
75073;SDS011;63652;51.526;5.080;2022-11-20T07:43:00;22.33;;;10.32;;
75073;SDS011;63652;51.526;5.080;2022-11-20T07:45:26;16.80;;;8.70;;
75073;SDS011;63652;51.526;5.080;2022-11-20T07:47:51;18.00;;;9.30;;
75073;SDS011;63652;51.526;5.080;2022-11-20T07:50:17;19.83;;;9.05;;
75073;SDS011;63652;51.526;5.080;2022-11-20T07:52:43;17.17;;;8.25;;
75073;SDS011;63652;51.526;5.080;2022-11-20T07:55:09;17.10;;;8.48;;
75073;SDS011;63652;51.526;5.080;2022-11-20T07:57:34;21.10;;;9.85;;
75073;SDS011;63652;51.526;5.080;2022-11-20T08:00:00;18.75;;;8.98;;
75073;SDS011;63652;51.526;5.080;2022-11-20T08:02:25;16.48;;;8.75;;
75073;SDS011;63652;51.526;5.080;2022-11-20T08:04:51;21.00;;;10.13;;
75073;SDS011;63652;51.526;5.080;2022-11-20T08:07:17;18.90;;;9.52;;
75073;SDS011;63652;51.526;5.080;2022-11-20T08:09:42;18.13;;;9.55;;
75073;SDS011;63652;51.526;5.080;2022-11-20T08:12:07;20.77;;;9.23;;
75073;SDS011;63652;51.526;5.080;2022-11-20T08:14:51;18.38;;;9.00;;
75073;SDS011;63652;51.526;5.080;2022-11-20T08:17:17;22.73;;;9.60;;
75073;SDS011;63652;51.526;5.080;2022-11-20T08:19:42;17.52;;;8.93;;
75073;SDS011;63652;51.526;5.080;2022-11-20T08:22:07;20.20;;;9.43;;
75073;SDS011;63652;51.526;5.080;2022-11-20T08:24:33;19.63;;;9.88;;
75073;SDS011;63652;51.526;5.080;2022-11-20T08:26:58;19.27;;;8.82;;
75073;SDS011;63652;51.526;5.080;2022-11-20T08:29:24;18.23;;;8.95;;
75073;SDS011;63652;51.526;5.080;2022-11-20T08:31:50;17.75;;;9.25;;
75073;SDS011;63652;51.526;5.080;2022-11-20T08:34:16;20.52;;;8.93;;
75073;SDS011;63652;51.526;5.080;2022-11-20T08:36:41;17.92;;;8.93;;
75073;SDS011;63652;51.526;5.080;2022-11-20T08:39:06;17.52;;;8.93;;
75073;SDS011;63652;51.526;5.080;2022-11-20T08:41:32;17.15;;;8.75;;
75073;SDS011;63652;51.526;5.080;2022-11-20T08:44:04;17.33;;;8.60;;
75073;SDS011;63652;51.526;5.080;2022-11-20T08:46:38;20.30;;;9.13;;
75073;SDS011;63652;51.526;5.080;2022-11-20T08:49:09;16.95;;;9.95;;
75073;SDS011;63652;51.526;5.080;2022-11-20T08:51:36;20.85;;;10.05;;
75073;SDS011;63652;51.526;5.080;2022-11-20T08:54:02;22.55;;;9.00;;
75073;SDS011;63652;51.526;5.080;2022-11-20T08:56:28;18.55;;;9.57;;
75073;SDS011;63652;51.526;5.080;2022-11-20T08:58:53;22.88;;;10.82;;
75073;SDS011;63652;51.526;5.080;2022-11-20T09:01:19;18.63;;;9.95;;
75073;SDS011;63652;51.526;5.080;2022-11-20T09:03:45;19.77;;;9.90;;
75073;SDS011;63652;51.526;5.080;2022-11-20T09:06:10;18.00;;;9.30;;
75073;SDS011;63652;51.526;5.080;2022-11-20T09:08:36;22.60;;;9.80;;
75073;SDS011;63652;51.526;5.080;2022-11-20T09:11:01;20.58;;;10.75;;
75073;SDS011;63652;51.526;5.080;2022-11-20T09:13:28;19.38;;;9.68;;
75073;SDS011;63652;51.526;5.080;2022-11-20T09:15:54;28.25;;;11.48;;
75073;SDS011;63652;51.526;5.080;2022-11-20T09:18:21;23.88;;;10.98;;
75073;SDS011;63652;51.526;5.080;2022-11-20T09:20:46;23.67;;;11.23;;
75073;SDS011;63652;51.526;5.080;2022-11-20T09:23:12;26.90;;;12.23;;
75073;SDS011;63652;51.526;5.080;2022-11-20T09:25:37;23.63;;;12.30;;
75073;SDS011;63652;51.526;5.080;2022-11-20T09:28:03;23.75;;;11.15;;
75073;SDS011;63652;51.526;5.080;2022-11-20T09:30:28;25.75;;;12.50;;
75073;SDS011;63652;51.526;5.080;2022-11-20T09:32:53;22.98;;;10.63;;
75073;SDS011;63652;51.526;5.080;2022-11-20T09:35:19;20.80;;;9.35;;
75073;SDS011;63652;51.526;5.080;2022-11-20T09:37:44;24.42;;;11.38;;
75073;SDS011;63652;51.526;5.080;2022-11-20T09:40:20;24.65;;;10.18;;
75073;SDS011;63652;51.526;5.080;2022-11-20T09:56:23;27.30;;;12.13;;
75073;SDS011;63652;51.526;5.080;2022-11-20T09:58:49;27.58;;;12.05;;
75073;SDS011;63652;51.526;5.080;2022-11-20T10:01:17;27.50;;;12.68;;
75073;SDS011;63652;51.526;5.080;2022-11-20T10:03:54;27.42;;;11.60;;
75073;SDS011;63652;51.526;5.080;2022-11-20T10:06:30;29.25;;;12.55;;
75073;SDS011;63652;51.526;5.080;2022-11-20T10:09:34;27.13;;;10.55;;
75073;SDS011;63652;51.526;5.080;2022-11-20T10:15:21;29.63;;;14.30;;
75073;SDS011;63652;51.526;5.080;2022-11-20T10:17:31;27.73;;;14.13;;
75073;SDS011;63652;51.526;5.080;2022-11-20T10:20:14;28.15;;;11.27;;
75073;SDS011;63652;51.526;5.080;2022-11-20T10:26:03;35.28;;;15.82;;
75073;SDS011;63652;51.526;5.080;2022-11-20T10:31:30;29.05;;;13.32;;
75073;SDS011;63652;51.526;5.080;2022-11-20T10:33:59;40.22;;;15.65;;
75073;SDS011;63652;51.526;5.080;2022-11-20T10:36:33;39.67;;;13.85;;
75073;SDS011;63652;51.526;5.080;2022-11-20T10:39:14;36.60;;;15.73;;
75073;SDS011;63652;51.526;5.080;2022-11-20T10:41:41;48.67;;;18.73;;
75073;SDS011;63652;51.526;5.080;2022-11-20T10:44:24;42.03;;;16.83;;
75073;SDS011;63652;51.526;5.080;2022-11-20T10:47:15;39.33;;;16.50;;
75073;SDS011;63652;51.526;5.080;2022-11-20T10:49:43;45.20;;;17.38;;
75073;SDS011;63652;51.526;5.080;2022-11-20T11:01:14;34.78;;;14.93;;
75073;SDS011;63652;51.526;5.080;2022-11-20T11:03:42;39.90;;;15.30;;
75073;SDS011;63652;51.526;5.080;2022-11-20T11:08:53;47.15;;;16.95;;
75073;SDS011;63652;51.526;5.080;2022-11-20T11:16:50;39.50;;;16.52;;
75073;SDS011;63652;51.526;5.080;2022-11-20T11:19:23;40.50;;;17.48;;
75073;SDS011;63652;51.526;5.080;2022-11-20T11:21:50;43.00;;;18.67;;
75073;SDS011;63652;51.526;5.080;2022-11-20T11:26:53;45.35;;;18.42;;
75073;SDS011;63652;51.526;5.080;2022-11-20T11:29:21;43.63;;;18.95;;
75073;SDS011;63652;51.526;5.080;2022-11-20T11:31:47;44.85;;;17.02;;
75073;SDS011;63652;51.526;5.080;2022-11-20T11:34:18;43.05;;;18.25;;
75073;SDS011;63652;51.526;5.080;2022-11-20T11:36:56;44.03;;;18.15;;
75073;SDS011;63652;51.526;5.080;2022-11-20T11:39:23;44.88;;;17.05;;
75073;SDS011;63652;51.526;5.080;2022-11-20T11:41:49;44.05;;;17.05;;
75073;SDS011;63652;51.526;5.080;2022-11-20T11:44:35;41.47;;;15.73;;
75073;SDS011;63652;51.526;5.080;2022-11-20T11:52:41;47.63;;;18.52;;
75073;SDS011;63652;51.526;5.080;2022-11-20T11:55:09;48.40;;;18.35;;
75073;SDS011;63652;51.526;5.080;2022-11-20T12:00:21;47.05;;;18.40;;
75073;SDS011;63652;51.526;5.080;2022-11-20T12:02:56;48.00;;;20.42;;
75073;SDS011;63652;51.526;5.080;2022-11-20T12:05:28;49.78;;;19.00;;
75073;SDS011;63652;51.526;5.080;2022-11-20T12:13:39;47.80;;;19.70;;
75073;SDS011;63652;51.526;5.080;2022-11-20T12:16:23;59.45;;;20.63;;
75073;SDS011;63652;51.526;5.080;2022-11-20T12:18:50;40.35;;;16.52;;
75073;SDS011;63652;51.526;5.080;2022-11-20T12:21:38;51.95;;;18.33;;
75073;SDS011;63652;51.526;5.080;2022-11-20T12:24:40;48.05;;;18.33;;
75073;SDS011;63652;51.526;5.080;2022-11-20T12:27:16;47.92;;;18.20;;
75073;SDS011;63652;51.526;5.080;2022-11-20T12:30:00;52.58;;;19.60;;
75073;SDS011;63652;51.526;5.080;2022-11-20T12:43:51;55.33;;;19.17;;
75073;SDS011;63652;51.526;5.080;2022-11-20T12:46:47;43.80;;;15.23;;
75073;SDS011;63652;51.526;5.080;2022-11-20T12:52:13;41.05;;;15.90;;
75073;SDS011;63652;51.526;5.080;2022-11-20T12:55:07;53.70;;;18.50;;
75073;SDS011;63652;51.526;5.080;2022-11-20T12:58:04;45.10;;;17.05;;
75073;SDS011;63652;51.526;5.080;2022-11-20T13:00:37;41.28;;;16.27;;
75073;SDS011;63652;51.526;5.080;2022-11-20T13:03:13;47.05;;;16.42;;
75073;SDS011;63652;51.526;5.080;2022-11-20T13:06:04;45.47;;;17.92;;
75073;SDS011;63652;51.526;5.080;2022-11-20T13:08:36;47.90;;;16.52;;
75073;SDS011;63652;51.526;5.080;2022-11-20T13:16:55;57.22;;;19.92;;
75073;SDS011;63652;51.526;5.080;2022-11-20T13:19:25;51.40;;;18.50;;
75073;SDS011;63652;51.526;5.080;2022-11-20T13:45:23;45.42;;;18.42;;
75073;SDS011;63652;51.526;5.080;2022-11-20T13:47:50;47.35;;;18.90;;
75073;SDS011;63652;51.526;5.080;2022-11-20T13:50:17;47.88;;;17.33;;
75073;SDS011;63652;51.526;5.080;2022-11-20T13:52:56;43.75;;;17.15;;
75073;SDS011;63652;51.526;5.080;2022-11-20T13:55:44;45.42;;;14.82;;
75073;SDS011;63652;51.526;5.080;2022-11-20T14:01:09;55.28;;;18.13;;
75073;SDS011;63652;51.526;5.080;2022-11-20T14:03:34;47.33;;;18.02;;
75073;SDS011;63652;51.526;5.080;2022-11-20T14:06:01;44.78;;;17.98;;
75073;SDS011;63652;51.526;5.080;2022-11-20T14:11:29;39.95;;;14.82;;
75073;SDS011;63652;51.526;5.080;2022-11-20T14:16:41;46.20;;;17.80;;
75073;SDS011;63652;51.526;5.080;2022-11-20T14:21:48;48.70;;;19.20;;
75073;SDS011;63652;51.526;5.080;2022-11-20T14:24:18;48.75;;;17.38;;
75073;SDS011;63652;51.526;5.080;2022-11-20T14:26:45;48.58;;;18.58;;
75073;SDS011;63652;51.526;5.080;2022-11-20T14:29:14;54.28;;;18.83;;
75073;SDS011;63652;51.526;5.080;2022-11-20T14:31:41;60.35;;;20.23;;
75073;SDS011;63652;51.526;5.080;2022-11-20T14:34:12;60.45;;;20.38;;
75073;SDS011;63652;51.526;5.080;2022-11-20T14:36:40;59.33;;;19.88;;
75073;SDS011;63652;51.526;5.080;2022-11-20T14:39:10;53.67;;;18.67;;
75073;SDS011;63652;51.526;5.080;2022-11-20T14:41:37;62.47;;;19.90;;
75073;SDS011;63652;51.526;5.080;2022-11-20T14:44:02;60.60;;;21.58;;
75073;SDS011;63652;51.526;5.080;2022-11-20T14:46:28;49.92;;;18.88;;
75073;SDS011;63652;51.526;5.080;2022-11-20T14:48:55;52.97;;;19.88;;
75073;SDS011;63652;51.526;5.080;2022-11-20T14:54:19;58.80;;;19.63;;
75073;SDS011;63652;51.526;5.080;2022-11-20T14:57:01;53.83;;;19.40;;
75073;SDS011;63652;51.526;5.080;2022-11-20T14:59:29;54.47;;;18.70;;
75073;SDS011;63652;51.526;5.080;2022-11-20T15:01:57;61.72;;;21.15;;
75073;SDS011;63652;51.526;5.080;2022-11-20T15:04:24;47.90;;;17.63;;
75073;SDS011;63652;51.526;5.080;2022-11-20T15:06:50;46.35;;;17.95;;
75073;SDS011;63652;51.526;5.080;2022-11-20T15:09:17;51.38;;;19.70;;
75073;SDS011;63652;51.526;5.080;2022-11-20T15:11:50;59.42;;;20.30;;
75073;SDS011;63652;51.526;5.080;2022-11-20T15:14:27;47.35;;;16.73;;
75073;SDS011;63652;51.526;5.080;2022-11-20T15:16:54;53.38;;;15.27;;
75073;SDS011;63652;51.526;5.080;2022-11-20T15:19:24;53.25;;;18.30;;
75073;SDS011;63652;51.526;5.080;2022-11-20T15:21:50;48.55;;;16.67;;
75073;SDS011;63652;51.526;5.080;2022-11-20T15:24:16;47.25;;;17.95;;
75073;SDS011;63652;51.526;5.080;2022-11-20T15:26:42;46.80;;;16.92;;
75073;SDS011;63652;51.526;5.080;2022-11-20T15:29:11;49.60;;;16.88;;
75073;SDS011;63652;51.526;5.080;2022-11-20T15:31:38;53.58;;;17.85;;
75073;SDS011;63652;51.526;5.080;2022-11-20T15:34:12;45.72;;;16.10;;
75073;SDS011;63652;51.526;5.080;2022-11-20T15:36:39;47.28;;;15.50;;
75073;SDS011;63652;51.526;5.080;2022-11-20T15:39:05;36.38;;;15.38;;
75073;SDS011;63652;51.526;5.080;2022-11-20T15:41:32;51.75;;;16.52;;
75073;SDS011;63652;51.526;5.080;2022-11-20T15:43:58;46.88;;;16.58;;
75073;SDS011;63652;51.526;5.080;2022-11-20T15:46:25;42.97;;;16.60;;
75073;SDS011;63652;51.526;5.080;2022-11-20T15:48:53;46.58;;;17.08;;
75073;SDS011;63652;51.526;5.080;2022-11-20T15:51:21;52.17;;;17.90;;
75073;SDS011;63652;51.526;5.080;2022-11-20T15:56:15;36.07;;;12.33;;
75073;SDS011;63652;51.526;5.080;2022-11-20T15:58:41;37.58;;;13.00;;
75073;SDS011;63652;51.526;5.080;2022-11-20T16:01:13;43.00;;;15.90;;
75073;SDS011;63652;51.526;5.080;2022-11-20T16:03:40;31.80;;;13.32;;
75073;SDS011;63652;51.526;5.080;2022-11-20T16:06:06;41.17;;;17.20;;
75073;SDS011;63652;51.526;5.080;2022-11-20T16:08:31;41.10;;;17.90;;
75073;SDS011;63652;51.526;5.080;2022-11-20T16:10:57;36.95;;;17.73;;
75073;SDS011;63652;51.526;5.080;2022-11-20T16:13:22;37.45;;;15.43;;
75073;SDS011;63652;51.526;5.080;2022-11-20T16:16:07;33.38;;;13.60;;
75073;SDS011;63652;51.526;5.080;2022-11-20T16:18:42;23.13;;;11.35;;
75073;SDS011;63652;51.526;5.080;2022-11-20T16:21:10;14.88;;;8.55;;
75073;SDS011;63652;51.526;5.080;2022-11-20T16:23:36;14.82;;;7.50;;
75073;SDS011;63652;51.526;5.080;2022-11-20T16:26:08;16.77;;;7.65;;
75073;SDS011;63652;51.526;5.080;2022-11-20T16:28:37;16.35;;;6.93;;
75073;SDS011;63652;51.526;5.080;2022-11-20T16:31:13;10.43;;;6.05;;
75073;SDS011;63652;51.526;5.080;2022-11-20T16:36:11;10.80;;;6.15;;
75073;SDS011;63652;51.526;5.080;2022-11-20T16:38:38;13.55;;;7.10;;
75073;SDS011;63652;51.526;5.080;2022-11-20T16:41:04;14.13;;;8.82;;
75073;SDS011;63652;51.526;5.080;2022-11-20T16:43:30;13.52;;;8.35;;
75073;SDS011;63652;51.526;5.080;2022-11-20T16:45:55;15.68;;;8.55;;
75073;SDS011;63652;51.526;5.080;2022-11-20T16:48:20;15.57;;;9.40;;
75073;SDS011;63652;51.526;5.080;2022-11-20T16:50:47;15.80;;;9.38;;
75073;SDS011;63652;51.526;5.080;2022-11-20T16:53:14;18.95;;;10.85;;
75073;SDS011;63652;51.526;5.080;2022-11-20T16:55:40;17.83;;;10.50;;
75073;SDS011;63652;51.526;5.080;2022-11-20T16:58:06;19.65;;;11.68;;
75073;SDS011;63652;51.526;5.080;2022-11-20T17:00:31;17.92;;;10.48;;